Terminal Aerodrome Forecast
Issued by NWS

Home | Current Version | Previous Version | Text Only | Print | Product List | Glossary On
Versions: 1 2 3 4 5 6 7 8 9 10 11 12 13 14 15 16 17 18 19 20 21 22 23 24 25
353
FTUS41 KPHI 301720
TAFMIV
TAF
KMIV 301720Z 3018/0118 10006KT P6SM OVC035
     FM010700 09003KT P6SM -RA SCT025 BKN040
     FM010900 09005KT 5SM -RA SCT009 BKN025
     FM011400 12008KT 2SM RA BR OVC009=

USA.gov is the U.S. government's official web portal to all federal, state and local government web resources and services.